PWSweather.com
Personal Weather Stations
Station Observations
DW1039
Liberty & Fairfield Townships, Hamilton, OH 45011

Liberty & Fairfield TownshipsHamilton, OH 45011

Lat: 39.3933, Lon: -84.477

Elevation: 780

Station Type: Davis Vantage Pro2 (Daytime Fan Aspirated)

http://www.lfweathercenter.com/

High Low Average
Temperature 35.7°F2.1°F 31.1°F-0.5°F 33.4°F0.8°F
Dew Point 32.2°F0.1°F 26.7°F-2.9°F 29.3°F-1.5°F
Winds 11.0 mph WSW17.7 mph WSW Calm Calm 1.3 mph 2.1 mph
Wind Gusts 15.0 mph24.1 mph -- 3.5 mph5.6 mph
Humidity 87% 80% 85%
Pressure 30.31 in1026.40 in 30.03 in1016.90 in -
Precipitation 1.07 in27.20 in - -
Hour Temp Dew Point Humidity Winds Wind Gusts Pressure Precip Precip Rate Daily Precip Total
12:00 AM 32.6°F0.3°C 27.4°F-2.6°C 81% Calm Calm 5.0 mph8.0 kmh 30.31 in1026.4 mb 0.00 in0.0 mm 0.00 in0.0 mm 0.00 in0.0 mm
12:10 AM 32.6°F0.3°C 27.4°F-2.6°C 81% Calm Calm 4.0 mph6.4 kmh 30.31 in1026.4 mb 0.00 in0.0 mm 0.00 in0.0 mm 0.00 in0.0 mm
12:20 AM 32.7°F0.4°C 27.5°F-2.5°C 81% Calm Calm 1.0 mph1.6 kmh 30.31 in1026.4 mb 0.00 in0.0 mm 0.00 in0.0 mm 0.00 in0.0 mm
12:30 AM 32.7°F0.4°C 27.5°F-2.5°C 81% Calm Calm 3.0 mph4.8 kmh 30.31 in1026.4 mb 0.00 in0.0 mm 0.00 in0.0 mm 0.00 in0.0 mm
12:40 AM 32.6°F0.3°C 27.4°F-2.6°C 81% Calm Calm 4.0 mph6.4 kmh 30.31 in1026.4 mb 0.00 in0.0 mm 0.00 in0.0 mm 0.00 in0.0 mm
12:50 AM 32.6°F0.3°C 27.4°F-2.6°C 81% Calm Calm 1.0 mph1.6 kmh 30.31 in1026.4 mb 0.00 in0.0 mm 0.00 in0.0 mm 0.00 in0.0 mm
01:00 AM 32.5°F0.3°C 27.3°F-2.6°C 81% Calm Calm -- 30.31 in1026.4 mb 0.00 in0.0 mm 0.00 in0.0 mm 0.00 in0.0 mm
01:10 AM 32.4°F0.2°C 27.2°F-2.7°C 81% Calm Calm -- 30.31 in1026.4 mb 0.00 in0.0 mm 0.00 in0.0 mm 0.00 in0.0 mm
01:20 AM 32.3°F0.2°C 27.1°F-2.7°C 81% Calm Calm -- 30.30 in1026.1 mb 0.00 in0.0 mm 0.00 in0.0 mm 0.00 in0.0 mm
01:30 AM 32.2°F0.1°C 27.0°F-2.8°C 81% 1.0 mph N1.6 kmh N 2.0 mph3.2 kmh 30.30 in1026.1 mb 0.00 in0.0 mm 0.00 in0.0 mm 0.00 in0.0 mm
01:40 AM 32.1°F0.1°C 26.9°F-2.8°C 81% Calm Calm -- 30.30 in1026.1 mb 0.00 in0.0 mm 0.00 in0.0 mm 0.00 in0.0 mm
01:50 AM 32.0°F0.0°C 26.8°F-2.9°C 81% Calm Calm 4.0 mph6.4 kmh 30.30 in1026.1 mb 0.00 in0.0 mm 0.00 in0.0 mm 0.00 in0.0 mm
02:00 AM 32.0°F0.0°C 26.8°F-2.9°C 81% Calm Calm 3.0 mph4.8 kmh 30.30 in1026.1 mb 0.00 in0.0 mm 0.00 in0.0 mm 0.00 in0.0 mm
02:10 AM 32.0°F0.0°C 26.8°F-2.9°C 81% Calm Calm 3.0 mph4.8 kmh 30.31 in1026.4 mb 0.00 in0.0 mm 0.00 in0.0 mm 0.00 in0.0 mm
02:20 AM 32.0°F0.0°C 26.8°F-2.9°C 81% Calm Calm -- 30.30 in1026.1 mb 0.00 in0.0 mm 0.00 in0.0 mm 0.00 in0.0 mm
02:30 AM 32.0°F0.0°C 26.8°F-2.9°C 81% Calm Calm -- 30.30 in1026.1 mb 0.00 in0.0 mm 0.00 in0.0 mm 0.00 in0.0 mm
02:40 AM 32.0°F0.0°C 26.8°F-2.9°C 81% Calm Calm -- 30.30 in1026.1 mb 0.00 in0.0 mm 0.00 in0.0 mm 0.00 in0.0 mm
02:50 AM 31.9°F-0.1°C 26.7°F-2.9°C 81% Calm Calm -- 30.30 in1026.1 mb 0.00 in0.0 mm 0.00 in0.0 mm 0.00 in0.0 mm
03:00 AM 31.9°F-0.1°C 27.0°F-2.8°C 82% Calm Calm -- 30.30 in1026.1 mb 0.00 in0.0 mm 0.00 in0.0 mm 0.00 in0.0 mm
03:10 AM 31.7°F-0.2°C 26.8°F-2.9°C 82% Calm Calm -- 30.30 in1026.1 mb 0.00 in0.0 mm 0.00 in0.0 mm 0.00 in0.0 mm
03:20 AM 31.6°F-0.2°C 26.8°F-2.9°C 82% Calm Calm -- 30.29 in1025.7 mb 0.00 in0.0 mm 0.00 in0.0 mm 0.00 in0.0 mm
03:30 AM 31.6°F-0.2°C 27.0°F-2.8°C 83% Calm Calm -- 30.29 in1025.7 mb 0.00 in0.0 mm 0.00 in0.0 mm 0.00 in0.0 mm
03:40 AM 31.6°F-0.2°C 27.0°F-2.8°C 83% Calm Calm -- 30.28 in1025.4 mb 0.00 in0.0 mm 0.00 in0.0 mm 0.00 in0.0 mm
03:50 AM 31.5°F-0.3°C 26.9°F-2.8°C 83% Calm Calm 4.0 mph6.4 kmh 30.27 in1025.1 mb 0.00 in0.0 mm 0.00 in0.0 mm 0.00 in0.0 mm
04:00 AM 31.3°F-0.4°C 26.8°F-2.9°C 83% 3.0 mph N4.8 kmh N 3.0 mph4.8 kmh 30.27 in1025.1 mb 0.00 in0.0 mm 0.00 in0.0 mm 0.00 in0.0 mm
04:10 AM 31.1°F-0.5°C 26.8°F-2.9°C 84% Calm Calm -- 30.26 in1024.7 mb 0.00 in0.0 mm 0.00 in0.0 mm 0.00 in0.0 mm
04:20 AM 31.1°F-0.5°C 26.8°F-2.9°C 84% Calm Calm 3.0 mph4.8 kmh 30.27 in1025.1 mb 0.00 in0.0 mm 0.00 in0.0 mm 0.00 in0.0 mm
04:30 AM 31.1°F-0.5°C 26.8°F-2.9°C 84% Calm Calm -- 30.26 in1024.7 mb 0.00 in0.0 mm 0.00 in0.0 mm 0.00 in0.0 mm
04:40 AM 31.1°F-0.5°C 26.8°F-2.9°C 84% Calm Calm 1.0 mph1.6 kmh 30.26 in1024.7 mb 0.00 in0.0 mm 0.00 in0.0 mm 0.00 in0.0 mm
04:50 AM 31.2°F-0.4°C 26.9°F-2.8°C 84% Calm Calm 4.0 mph6.4 kmh 30.26 in1024.7 mb 0.00 in0.0 mm 0.00 in0.0 mm 0.00 in0.0 mm
05:00 AM 31.1°F-0.5°C 26.8°F-2.9°C 84% 4.0 mph NE6.4 kmh NE 5.0 mph8.0 kmh 30.26 in1024.7 mb 0.00 in0.0 mm 0.00 in0.0 mm 0.00 in0.0 mm
05:10 AM 31.2°F-0.4°C 27.2°F-2.7°C 85% 2.0 mph NE3.2 kmh NE 3.0 mph4.8 kmh 30.25 in1024.4 mb 0.00 in0.0 mm 0.00 in0.0 mm 0.00 in0.0 mm
05:20 AM 31.3°F-0.4°C 27.3°F-2.6°C 85% Calm Calm 3.0 mph4.8 kmh 30.25 in1024.4 mb 0.00 in0.0 mm 0.00 in0.0 mm 0.00 in0.0 mm
05:30 AM 31.5°F-0.3°C 27.5°F-2.5°C 85% Calm Calm 3.0 mph4.8 kmh 30.25 in1024.4 mb 0.00 in0.0 mm 0.00 in0.0 mm 0.00 in0.0 mm
05:40 AM 31.6°F-0.2°C 27.6°F-2.4°C 85% Calm Calm -- 30.25 in1024.4 mb 0.00 in0.0 mm 0.00 in0.0 mm 0.00 in0.0 mm
05:50 AM 31.8°F-0.1°C 27.8°F-2.3°C 85% Calm Calm 3.0 mph4.8 kmh 30.25 in1024.4 mb 0.00 in0.0 mm 0.00 in0.0 mm 0.00 in0.0 mm
06:00 AM 31.9°F-0.1°C 27.9°F-2.3°C 85% Calm Calm -- 30.25 in1024.4 mb 0.00 in0.0 mm 0.00 in0.0 mm 0.00 in0.0 mm
06:10 AM 31.9°F-0.1°C 27.9°F-2.3°C 85% Calm Calm -- 30.24 in1024.0 mb 0.00 in0.0 mm 0.00 in0.0 mm 0.00 in0.0 mm
06:20 AM 31.9°F-0.1°C 27.9°F-2.3°C 85% Calm Calm -- 30.25 in1024.4 mb 0.00 in0.0 mm 0.00 in0.0 mm 0.00 in0.0 mm
06:30 AM 32.0°F0.0°C 28.0°F-2.2°C 85% Calm Calm -- 30.24 in1024.0 mb 0.00 in0.0 mm 0.00 in0.0 mm 0.00 in0.0 mm
06:40 AM 32.0°F0.0°C 28.0°F-2.2°C 85% Calm Calm -- 30.25 in1024.4 mb 0.00 in0.0 mm 0.00 in0.0 mm 0.00 in0.0 mm
06:50 AM 32.1°F0.1°C 28.1°F-2.2°C 85% Calm Calm -- 30.25 in1024.4 mb 0.00 in0.0 mm 0.00 in0.0 mm 0.00 in0.0 mm
07:00 AM 32.3°F0.2°C 28.3°F-2.1°C 85% Calm Calm 2.0 mph3.2 kmh 30.24 in1024.0 mb 0.00 in0.0 mm 0.00 in0.0 mm 0.00 in0.0 mm
07:10 AM 32.4°F0.2°C 28.1°F-2.2°C 84% Calm Calm -- 30.24 in1024.0 mb 0.00 in0.0 mm 0.00 in0.0 mm 0.00 in0.0 mm
07:20 AM 32.4°F0.2°C 28.1°F-2.2°C 84% Calm Calm -- 30.23 in1023.7 mb 0.00 in0.0 mm 0.00 in0.0 mm 0.00 in0.0 mm
07:30 AM 32.3°F0.2°C 28.0°F-2.2°C 84% Calm Calm -- 30.22 in1023.4 mb 0.00 in0.0 mm 0.00 in0.0 mm 0.00 in0.0 mm
07:40 AM 32.3°F0.2°C 28.0°F-2.2°C 84% Calm Calm -- 30.22 in1023.4 mb 0.00 in0.0 mm 0.00 in0.0 mm 0.00 in0.0 mm
07:50 AM 32.4°F0.2°C 28.1°F-2.2°C 84% Calm Calm -- 30.22 in1023.4 mb 0.00 in0.0 mm 0.00 in0.0 mm 0.00 in0.0 mm
08:00 AM 32.3°F0.2°C 28.0°F-2.2°C 84% Calm Calm 2.0 mph3.2 kmh 30.22 in1023.4 mb 0.00 in0.0 mm 0.00 in0.0 mm 0.00 in0.0 mm
08:10 AM 32.4°F0.2°C 28.1°F-2.2°C 84% Calm Calm -- 30.25 in1024.4 mb 0.00 in0.0 mm 0.00 in0.0 mm 0.00 in0.0 mm
08:20 AM 32.5°F0.3°C 27.9°F-2.3°C 83% Calm Calm -- 30.24 in1024.0 mb 0.00 in0.0 mm 0.00 in0.0 mm 0.00 in0.0 mm
08:30 AM 32.6°F0.3°C 28.0°F-2.2°C 83% Calm Calm -- 30.26 in1024.7 mb 0.00 in0.0 mm 0.00 in0.0 mm 0.00 in0.0 mm
08:40 AM 32.9°F0.5°C 28.3°F-2.1°C 83% Calm Calm -- 30.24 in1024.0 mb 0.00 in0.0 mm 0.00 in0.0 mm 0.00 in0.0 mm
08:50 AM 33.0°F0.6°C 28.4°F-2.0°C 83% Calm Calm -- 30.23 in1023.7 mb 0.00 in0.0 mm 0.00 in0.0 mm 0.00 in0.0 mm
09:00 AM 33.2°F0.7°C 28.6°F-1.9°C 83% Calm Calm -- 30.23 in1023.7 mb 0.00 in0.0 mm 0.00 in0.0 mm 0.00 in0.0 mm
09:10 AM 33.3°F0.7°C 28.7°F-1.8°C 83% Calm Calm 1.0 mph1.6 kmh 30.22 in1023.4 mb 0.00 in0.0 mm 0.00 in0.0 mm 0.00 in0.0 mm
09:20 AM 33.6°F0.9°C 28.7°F-1.8°C 82% Calm Calm 2.0 mph3.2 kmh 30.20 in1022.7 mb 0.00 in0.0 mm 0.00 in0.0 mm 0.00 in0.0 mm
09:30 AM 33.7°F0.9°C 28.8°F-1.8°C 82% 4.0 mph SE6.4 kmh SE 4.0 mph6.4 kmh 30.18 in1022.0 mb 0.00 in0.0 mm 0.00 in0.0 mm 0.00 in0.0 mm
09:40 AM 33.7°F0.9°C 28.8°F-1.8°C 82% 1.0 mph ESE1.6 kmh ESE 4.0 mph6.4 kmh 30.18 in1022.0 mb 0.00 in0.0 mm 0.00 in0.0 mm 0.00 in0.0 mm
09:50 AM 34.1°F1.2°C 29.2°F-1.6°C 82% Calm Calm 5.0 mph8.0 kmh 30.18 in1022.0 mb 0.00 in0.0 mm 0.00 in0.0 mm 0.00 in0.0 mm
10:00 AM 34.7°F1.5°C 29.5°F-1.4°C 81% 2.0 mph E3.2 kmh E 5.0 mph8.0 kmh 30.17 in1021.7 mb 0.00 in0.0 mm 0.00 in0.0 mm 0.00 in0.0 mm
10:10 AM 35.2°F1.8°C 30.0°F-1.1°C 81% Calm Calm -- 30.17 in1021.7 mb 0.00 in0.0 mm 0.00 in0.0 mm 0.00 in0.0 mm
10:20 AM 35.5°F1.9°C 30.3°F-0.9°C 81% Calm Calm 3.0 mph4.8 kmh 30.16 in1021.3 mb 0.00 in0.0 mm 0.00 in0.0 mm 0.00 in0.0 mm
10:30 AM 35.4°F1.9°C 29.9°F-1.2°C 80% 3.0 mph E4.8 kmh E 4.0 mph6.4 kmh 30.17 in1021.7 mb 0.00 in0.0 mm 0.00 in0.0 mm 0.00 in0.0 mm
10:40 AM 35.3°F1.8°C 29.8°F-1.2°C 80% Calm Calm -- 30.19 in1022.4 mb 0.00 in0.0 mm 0.00 in0.0 mm 0.00 in0.0 mm
10:50 AM 35.2°F1.8°C 29.7°F-1.3°C 80% Calm Calm -- 30.19 in1022.4 mb 0.00 in0.0 mm 0.00 in0.0 mm 0.00 in0.0 mm
11:00 AM 35.3°F1.8°C 29.8°F-1.2°C 80% 2.0 mph SE3.2 kmh SE 5.0 mph8.0 kmh 30.18 in1022.0 mb 0.00 in0.0 mm 0.00 in0.0 mm 0.00 in0.0 mm
11:10 AM 35.3°F1.8°C 29.8°F-1.2°C 80% 2.0 mph SE3.2 kmh SE 7.0 mph11.3 kmh 30.16 in1021.3 mb 0.00 in0.0 mm 0.00 in0.0 mm 0.00 in0.0 mm
11:20 AM 35.3°F1.8°C 30.1°F-1.1°C 81% 3.0 mph SE4.8 kmh SE 10.0 mph16.1 kmh 30.15 in1021.0 mb 0.00 in0.0 mm 0.00 in0.0 mm 0.00 in0.0 mm
11:30 AM 35.4°F1.9°C 30.2°F-1.0°C 81% 4.0 mph SSE6.4 kmh SSE 9.0 mph14.5 kmh 30.17 in1021.7 mb 0.00 in0.0 mm 0.00 in0.0 mm 0.00 in0.0 mm
11:40 AM 35.4°F1.9°C 30.2°F-1.0°C 81% 7.0 mph SE11.3 kmh SE 9.0 mph14.5 kmh 30.17 in1021.7 mb 0.00 in0.0 mm 0.00 in0.0 mm 0.00 in0.0 mm
11:50 AM 35.4°F1.9°C 30.2°F-1.0°C 81% 3.0 mph SE4.8 kmh SE 12.0 mph19.3 kmh 30.16 in1021.3 mb 0.00 in0.0 mm 0.00 in0.0 mm 0.00 in0.0 mm
12:00 PM 34.9°F1.6°C 30.3°F-0.9°C 83% 4.0 mph SSE6.4 kmh SSE 9.0 mph14.5 kmh 30.15 in1021.0 mb 0.00 in0.0 mm 0.00 in0.0 mm 0.00 in0.0 mm
12:10 PM 34.1°F1.2°C 29.8°F-1.2°C 84% 2.0 mph S3.2 kmh S 9.0 mph14.5 kmh 30.14 in1020.7 mb 0.00 in0.0 mm 0.00 in0.0 mm 0.00 in0.0 mm
12:20 PM 33.7°F0.9°C 30.0°F-1.1°C 86% 3.0 mph S4.8 kmh S 6.0 mph9.7 kmh 30.14 in1020.7 mb 0.00 in0.0 mm 0.00 in0.0 mm 0.00 in0.0 mm
12:30 PM 33.4°F0.8°C 29.7°F-1.3°C 86% Calm Calm 4.0 mph6.4 kmh 30.14 in1020.7 mb 0.00 in0.0 mm 0.00 in0.0 mm 0.00 in0.0 mm
12:40 PM 33.3°F0.7°C 29.6°F-1.3°C 86% Calm Calm 5.0 mph8.0 kmh 30.14 in1020.7 mb 0.00 in0.0 mm 0.00 in0.0 mm 0.00 in0.0 mm
12:50 PM 33.2°F0.7°C 29.8°F-1.2°C 87% Calm Calm 3.0 mph4.8 kmh 30.13 in1020.3 mb 0.00 in0.0 mm 0.00 in0.0 mm 0.00 in0.0 mm
01:00 PM 33.1°F0.6°C 29.7°F-1.3°C 87% Calm Calm -- 30.13 in1020.3 mb 0.00 in0.0 mm 0.00 in0.0 mm 0.00 in0.0 mm
01:10 PM 33.0°F0.6°C 29.6°F-1.3°C 87% Calm Calm -- 30.13 in1020.3 mb 0.00 in0.0 mm 0.00 in0.0 mm 0.00 in0.0 mm
01:20 PM 33.1°F0.6°C 29.7°F-1.3°C 87% Calm Calm -- 30.12 in1020.0 mb 0.00 in0.0 mm 0.00 in0.0 mm 0.00 in0.0 mm
01:30 PM 33.1°F0.6°C 29.7°F-1.3°C 87% Calm Calm -- 30.10 in1019.3 mb 0.00 in0.0 mm 0.00 in0.0 mm 0.00 in0.0 mm
01:40 PM 33.1°F0.6°C 29.7°F-1.3°C 87% Calm Calm -- 30.08 in1018.6 mb 0.00 in0.0 mm 0.00 in0.0 mm 0.00 in0.0 mm
01:50 PM 33.2°F0.7°C 29.8°F-1.2°C 87% Calm Calm -- 30.07 in1018.3 mb 0.00 in0.0 mm 0.00 in0.0 mm 0.00 in0.0 mm
02:00 PM 33.2°F0.7°C 29.8°F-1.2°C 87% 2.0 mph S3.2 kmh S 2.0 mph3.2 kmh 30.05 in1017.6 mb 0.00 in0.0 mm 0.00 in0.0 mm 0.00 in0.0 mm
02:10 PM 33.2°F0.7°C 29.8°F-1.2°C 87% Calm Calm -- 30.06 in1017.9 mb 0.00 in0.0 mm 0.00 in0.0 mm 0.00 in0.0 mm
02:20 PM 33.4°F0.8°C 30.0°F-1.1°C 87% Calm Calm -- 30.05 in1017.6 mb 0.00 in0.0 mm 0.00 in0.0 mm 0.00 in0.0 mm
02:30 PM 33.5°F0.8°C 30.1°F-1.1°C 87% Calm Calm -- 30.05 in1017.6 mb 0.01 in0.3 mm 0.06 in1.5 mm 0.01 in0.3 mm
02:40 PM 33.5°F0.8°C 30.1°F-1.1°C 87% Calm Calm -- 30.06 in1017.9 mb 0.01 in0.3 mm 0.00 in0.0 mm 0.01 in0.3 mm
02:50 PM 33.5°F0.8°C 30.1°F-1.1°C 87% Calm Calm -- 30.05 in1017.6 mb 0.02 in0.5 mm 0.06 in1.5 mm 0.02 in0.5 mm
03:00 PM 33.4°F0.8°C 30.0°F-1.1°C 87% Calm Calm -- 30.05 in1017.6 mb 0.02 in0.5 mm 0.00 in0.0 mm 0.02 in0.5 mm
03:10 PM 33.4°F0.8°C 30.0°F-1.1°C 87% Calm Calm -- 30.04 in1017.3 mb 0.03 in0.8 mm 0.06 in1.5 mm 0.03 in0.8 mm
03:20 PM 33.5°F0.8°C 30.1°F-1.1°C 87% Calm Calm -- 30.03 in1016.9 mb 0.03 in0.8 mm 0.00 in0.0 mm 0.03 in0.8 mm
03:30 PM 33.6°F0.9°C 30.2°F-1.0°C 87% Calm Calm -- 30.03 in1016.9 mb 0.03 in0.8 mm 0.00 in0.0 mm 0.03 in0.8 mm
03:40 PM 33.6°F0.9°C 30.2°F-1.0°C 87% 2.0 mph S3.2 kmh S 4.0 mph6.4 kmh 30.03 in1016.9 mb 0.04 in1.0 mm 0.06 in1.5 mm 0.04 in1.0 mm
03:50 PM 33.7°F0.9°C 30.3°F-0.9°C 87% 2.0 mph S3.2 kmh S 5.0 mph8.0 kmh 30.04 in1017.3 mb 0.03 in0.8 mm 0.00 in0.0 mm 0.04 in1.0 mm
04:00 PM 33.6°F0.9°C 30.2°F-1.0°C 87% Calm Calm 5.0 mph8.0 kmh 30.04 in1017.3 mb 0.03 in0.8 mm 0.00 in0.0 mm 0.04 in1.0 mm
04:10 PM 33.7°F0.9°C 30.3°F-0.9°C 87% Calm Calm 6.0 mph9.7 kmh 30.05 in1017.6 mb 0.03 in0.8 mm 0.00 in0.0 mm 0.04 in1.0 mm
04:20 PM 33.7°F0.9°C 30.3°F-0.9°C 87% 4.0 mph S6.4 kmh S 4.0 mph6.4 kmh 30.04 in1017.3 mb 0.03 in0.8 mm 0.00 in0.0 mm 0.04 in1.0 mm
04:30 PM 33.9°F1.1°C 30.5°F-0.8°C 87% 4.0 mph S6.4 kmh S 7.0 mph11.3 kmh 30.05 in1017.6 mb 0.02 in0.5 mm 0.00 in0.0 mm 0.04 in1.0 mm
04:40 PM 34.0°F1.1°C 30.6°F-0.8°C 87% 1.0 mph S1.6 kmh S 5.0 mph8.0 kmh 30.05 in1017.6 mb 0.02 in0.5 mm 0.00 in0.0 mm 0.04 in1.0 mm
04:50 PM 34.2°F1.2°C 30.7°F-0.7°C 87% Calm Calm 5.0 mph8.0 kmh 30.06 in1017.9 mb 0.02 in0.5 mm 0.00 in0.0 mm 0.04 in1.0 mm
05:00 PM 34.2°F1.2°C 30.7°F-0.7°C 87% 3.0 mph SSW4.8 kmh SSW 6.0 mph9.7 kmh 30.06 in1017.9 mb 0.02 in0.5 mm 0.00 in0.0 mm 0.04 in1.0 mm
05:10 PM 34.3°F1.3°C 30.8°F-0.7°C 87% 4.0 mph S6.4 kmh S 6.0 mph9.7 kmh 30.07 in1018.3 mb 0.02 in0.5 mm 0.00 in0.0 mm 0.04 in1.0 mm
05:20 PM 34.3°F1.3°C 30.8°F-0.7°C 87% Calm Calm 3.0 mph4.8 kmh 30.07 in1018.3 mb 0.02 in0.5 mm 0.00 in0.0 mm 0.04 in1.0 mm
05:30 PM 34.4°F1.3°C 30.9°F-0.6°C 87% Calm Calm -- 30.08 in1018.6 mb 0.03 in0.8 mm 0.06 in1.5 mm 0.05 in1.3 mm
05:40 PM 34.4°F1.3°C 30.9°F-0.6°C 87% Calm Calm 4.0 mph6.4 kmh 30.07 in1018.3 mb 0.03 in0.8 mm 0.00 in0.0 mm 0.05 in1.3 mm
05:50 PM 34.5°F1.4°C 31.0°F-0.6°C 87% Calm Calm -- 30.07 in1018.3 mb 0.03 in0.8 mm 0.00 in0.0 mm 0.05 in1.3 mm
06:00 PM 34.3°F1.3°C 30.8°F-0.7°C 87% Calm Calm 4.0 mph6.4 kmh 30.08 in1018.6 mb 0.03 in0.8 mm 0.00 in0.0 mm 0.05 in1.3 mm
06:10 PM 34.2°F1.2°C 30.7°F-0.7°C 87% 4.0 mph S6.4 kmh S 5.0 mph8.0 kmh 30.07 in1018.3 mb 0.03 in0.8 mm 0.00 in0.0 mm 0.05 in1.3 mm
06:20 PM 34.2°F1.2°C 30.7°F-0.7°C 87% 2.0 mph SSW3.2 kmh SSW 5.0 mph8.0 kmh 30.08 in1018.6 mb 0.03 in0.8 mm 0.00 in0.0 mm 0.05 in1.3 mm
06:30 PM 34.1°F1.2°C 30.6°F-0.8°C 87% 2.0 mph SSW3.2 kmh SSW 5.0 mph8.0 kmh 30.09 in1019.0 mb 0.02 in0.5 mm 0.00 in0.0 mm 0.05 in1.3 mm
06:40 PM 34.2°F1.2°C 30.7°F-0.7°C 87% Calm Calm 3.0 mph4.8 kmh 30.09 in1019.0 mb 0.03 in0.8 mm 0.06 in1.5 mm 0.06 in1.5 mm
06:50 PM 34.2°F1.2°C 30.7°F-0.7°C 87% 3.0 mph SSW4.8 kmh SSW 5.0 mph8.0 kmh 30.09 in1019.0 mb 0.02 in0.5 mm 0.00 in0.0 mm 0.06 in1.5 mm
07:00 PM 34.2°F1.2°C 30.7°F-0.7°C 87% 2.0 mph SSW3.2 kmh SSW 4.0 mph6.4 kmh 30.10 in1019.3 mb 0.02 in0.5 mm 0.00 in0.0 mm 0.06 in1.5 mm
07:10 PM 34.1°F1.2°C 30.6°F-0.8°C 87% Calm Calm 5.0 mph8.0 kmh 30.10 in1019.3 mb 0.02 in0.5 mm 0.00 in0.0 mm 0.06 in1.5 mm
07:20 PM 34.0°F1.1°C 30.6°F-0.8°C 87% Calm Calm 5.0 mph8.0 kmh 30.11 in1019.6 mb 0.02 in0.5 mm 0.00 in0.0 mm 0.06 in1.5 mm
07:30 PM 33.9°F1.1°C 30.5°F-0.8°C 87% 4.0 mph SW6.4 kmh SW 4.0 mph6.4 kmh 30.11 in1019.6 mb 0.02 in0.5 mm 0.00 in0.0 mm 0.06 in1.5 mm
07:40 PM 33.9°F1.1°C 30.5°F-0.8°C 87% Calm Calm 5.0 mph8.0 kmh 30.11 in1019.6 mb 0.02 in0.5 mm 0.00 in0.0 mm 0.06 in1.5 mm
07:50 PM 33.9°F1.1°C 30.5°F-0.8°C 87% Calm Calm 3.0 mph4.8 kmh 30.11 in1019.6 mb 0.02 in0.5 mm 0.00 in0.0 mm 0.06 in1.5 mm
08:00 PM 33.7°F0.9°C 30.3°F-0.9°C 87% 5.0 mph S8.0 kmh S 5.0 mph8.0 kmh 30.10 in1019.3 mb 0.02 in0.5 mm 0.00 in0.0 mm 0.06 in1.5 mm
08:10 PM 33.8°F1.0°C 30.4°F-0.9°C 87% 2.0 mph S3.2 kmh S 4.0 mph6.4 kmh 30.10 in1019.3 mb 0.01 in0.3 mm 0.00 in0.0 mm 0.06 in1.5 mm
08:20 PM 33.9°F1.1°C 30.5°F-0.8°C 87% Calm Calm 5.0 mph8.0 kmh 30.09 in1019.0 mb 0.02 in0.5 mm 0.06 in1.5 mm 0.07 in1.8 mm
08:30 PM 34.0°F1.1°C 30.6°F-0.8°C 87% 2.0 mph S3.2 kmh S 4.0 mph6.4 kmh 30.10 in1019.3 mb 0.02 in0.5 mm 0.00 in0.0 mm 0.07 in1.8 mm
08:40 PM 34.1°F1.2°C 30.6°F-0.8°C 87% Calm Calm 4.0 mph6.4 kmh 30.10 in1019.3 mb 0.01 in0.3 mm 0.00 in0.0 mm 0.07 in1.8 mm
08:50 PM 34.3°F1.3°C 30.8°F-0.7°C 87% 3.0 mph SSW4.8 kmh SSW 6.0 mph9.7 kmh 30.11 in1019.6 mb 0.01 in0.3 mm 0.00 in0.0 mm 0.07 in1.8 mm
09:00 PM 34.6°F1.4°C 31.1°F-0.5°C 87% 6.0 mph SSW9.7 kmh SSW 7.0 mph11.3 kmh 30.11 in1019.6 mb 0.01 in0.3 mm 0.00 in0.0 mm 0.07 in1.8 mm
09:10 PM 34.7°F1.5°C 31.2°F-0.4°C 87% 5.0 mph SW8.0 kmh SW 9.0 mph14.5 kmh 30.11 in1019.6 mb 0.02 in0.5 mm 0.06 in1.5 mm 0.08 in2.0 mm
09:20 PM 35.0°F1.7°C 31.5°F-0.3°C 87% 4.0 mph WSW6.4 kmh WSW 11.0 mph17.7 kmh 30.12 in1020.0 mb 0.01 in0.3 mm 0.00 in0.0 mm 0.08 in2.0 mm
09:30 PM 35.2°F1.8°C 31.7°F-0.2°C 87% 10.0 mph SW16.1 kmh SW 11.0 mph17.7 kmh 30.12 in1020.0 mb 0.01 in0.3 mm 0.00 in0.0 mm 0.08 in2.0 mm
09:40 PM 35.3°F1.8°C 31.8°F-0.1°C 87% 4.0 mph WSW6.4 kmh WSW 14.0 mph22.5 kmh 30.13 in1020.3 mb 0.01 in0.3 mm 0.00 in0.0 mm 0.08 in2.0 mm
09:50 PM 35.3°F1.8°C 31.8°F-0.1°C 87% 5.0 mph SW8.0 kmh SW 15.0 mph24.1 kmh 30.14 in1020.7 mb 0.01 in0.3 mm 0.00 in0.0 mm 0.08 in2.0 mm
10:00 PM 35.3°F1.8°C 31.8°F-0.1°C 87% 3.0 mph SW4.8 kmh SW 9.0 mph14.5 kmh 30.15 in1021.0 mb 0.01 in0.3 mm 0.00 in0.0 mm 0.08 in2.0 mm
10:10 PM 35.3°F1.8°C 31.8°F-0.1°C 87% 3.0 mph WSW4.8 kmh WSW 9.0 mph14.5 kmh 30.15 in1021.0 mb 0.01 in0.3 mm 0.00 in0.0 mm 0.08 in2.0 mm
10:20 PM 35.4°F1.9°C 31.9°F-0.1°C 87% 11.0 mph WSW17.7 kmh WSW 11.0 mph17.7 kmh 30.15 in1021.0 mb 0.01 in0.3 mm 0.00 in0.0 mm 0.08 in2.0 mm
10:30 PM 35.4°F1.9°C 31.9°F-0.1°C 87% Calm Calm 6.0 mph9.7 kmh 30.15 in1021.0 mb 0.01 in0.3 mm 0.00 in0.0 mm 0.08 in2.0 mm
10:40 PM 35.4°F1.9°C 31.9°F-0.1°C 87% 2.0 mph SW3.2 kmh SW 7.0 mph11.3 kmh 30.16 in1021.3 mb 0.01 in0.3 mm 0.00 in0.0 mm 0.08 in2.0 mm
10:50 PM 35.4°F1.9°C 31.9°F-0.1°C 87% 4.0 mph SW6.4 kmh SW 6.0 mph9.7 kmh 30.16 in1021.3 mb 0.01 in0.3 mm 0.00 in0.0 mm 0.08 in2.0 mm
11:00 PM 35.5°F1.9°C 32.0°F0.0°C 87% 4.0 mph WSW6.4 kmh WSW 9.0 mph14.5 kmh 30.17 in1021.7 mb 0.01 in0.3 mm 0.00 in0.0 mm 0.08 in2.0 mm
11:10 PM 35.6°F2.0°C 32.1°F0.1°C 87% 7.0 mph WSW11.3 kmh WSW 9.0 mph14.5 kmh 30.16 in1021.3 mb 0.00 in0.0 mm 0.00 in0.0 mm 0.08 in2.0 mm
11:20 PM 35.7°F2.1°C 32.2°F0.1°C 87% 6.0 mph WNW9.7 kmh WNW 10.0 mph16.1 kmh 30.17 in1021.7 mb 0.01 in0.3 mm 0.06 in1.5 mm 0.09 in2.3 mm
11:30 PM 35.6°F2.0°C 32.1°F0.1°C 87% 4.0 mph W6.4 kmh W 10.0 mph16.1 kmh 30.17 in1021.7 mb 0.01 in0.3 mm 0.00 in0.0 mm 0.09 in2.3 mm
11:40 PM 35.4°F1.9°C 31.9°F-0.1°C 87% 5.0 mph W8.0 kmh W 13.0 mph20.9 kmh 30.18 in1022.0 mb 0.01 in0.3 mm 0.00 in0.0 mm 0.09 in2.3 mm
11:50 PM 35.2°F1.8°C 31.7°F-0.2°C 87% 4.0 mph WSW6.4 kmh WSW 13.0 mph20.9 kmh 30.18 in1022.0 mb 0.01 in0.3 mm 0.00 in0.0 mm 0.09 in2.3 mm